sensor_id;sensor_type;location;lat;lon;timestamp;P1;durP1;ratioP1;P2;durP2;ratioP2
55312;SDS011;46892;45.668;11.756;2023-03-13T00:01:56;28.33;;;18.60;;
55312;SDS011;46892;45.668;11.756;2023-03-13T00:04:22;31.40;;;20.87;;
55312;SDS011;46892;45.668;11.756;2023-03-13T00:06:48;30.47;;;20.13;;
55312;SDS011;46892;45.668;11.756;2023-03-13T00:09:14;30.57;;;20.77;;
55312;SDS011;46892;45.668;11.756;2023-03-13T00:11:41;30.67;;;21.20;;
55312;SDS011;46892;45.668;11.756;2023-03-13T00:14:07;29.63;;;19.33;;
55312;SDS011;46892;45.668;11.756;2023-03-13T00:16:33;34.07;;;21.70;;
55312;SDS011;46892;45.668;11.756;2023-03-13T00:19:01;30.90;;;21.47;;
55312;SDS011;46892;45.668;11.756;2023-03-13T00:21:28;31.87;;;21.30;;
55312;SDS011;46892;45.668;11.756;2023-03-13T00:23:54;32.63;;;21.07;;
55312;SDS011;46892;45.668;11.756;2023-03-13T00:26:23;36.20;;;21.10;;
55312;SDS011;46892;45.668;11.756;2023-03-13T00:28:50;34.13;;;20.97;;
55312;SDS011;46892;45.668;11.756;2023-03-13T00:31:18;32.10;;;21.23;;
55312;SDS011;46892;45.668;11.756;2023-03-13T00:33:47;31.85;;;20.50;;
55312;SDS011;46892;45.668;11.756;2023-03-13T00:36:17;28.40;;;19.43;;
55312;SDS011;46892;45.668;11.756;2023-03-13T00:38:44;29.13;;;20.20;;
55312;SDS011;46892;45.668;11.756;2023-03-13T00:41:11;28.97;;;20.53;;
55312;SDS011;46892;45.668;11.756;2023-03-13T00:43:44;27.13;;;20.23;;
55312;SDS011;46892;45.668;11.756;2023-03-13T00:46:11;29.07;;;19.70;;
55312;SDS011;46892;45.668;11.756;2023-03-13T00:48:38;32.63;;;21.77;;
55312;SDS011;46892;45.668;11.756;2023-03-13T00:51:04;39.40;;;22.17;;
55312;SDS011;46892;45.668;11.756;2023-03-13T00:53:31;29.60;;;19.70;;
55312;SDS011;46892;45.668;11.756;2023-03-13T00:55:58;31.53;;;20.37;;
55312;SDS011;46892;45.668;11.756;2023-03-13T00:58:26;29.33;;;20.23;;
55312;SDS011;46892;45.668;11.756;2023-03-13T01:00:53;26.33;;;18.57;;
55312;SDS011;46892;45.668;11.756;2023-03-13T01:03:19;26.93;;;19.17;;
55312;SDS011;46892;45.668;11.756;2023-03-13T01:05:59;31.37;;;20.57;;
55312;SDS011;46892;45.668;11.756;2023-03-13T01:08:49;27.50;;;19.90;;
55312;SDS011;46892;45.668;11.756;2023-03-13T01:11:16;27.23;;;19.53;;
55312;SDS011;46892;45.668;11.756;2023-03-13T01:13:44;28.93;;;20.33;;
55312;SDS011;46892;45.668;11.756;2023-03-13T01:16:14;29.13;;;19.30;;
55312;SDS011;46892;45.668;11.756;2023-03-13T01:18:43;29.37;;;18.30;;
55312;SDS011;46892;45.668;11.756;2023-03-13T01:21:11;24.80;;;17.90;;
55312;SDS011;46892;45.668;11.756;2023-03-13T01:23:38;23.60;;;16.93;;
55312;SDS011;46892;45.668;11.756;2023-03-13T01:26:04;28.13;;;18.17;;
55312;SDS011;46892;45.668;11.756;2023-03-13T01:28:31;30.90;;;18.83;;
55312;SDS011;46892;45.668;11.756;2023-03-13T01:30:58;24.47;;;17.37;;
55312;SDS011;46892;45.668;11.756;2023-03-13T01:33:24;24.13;;;17.20;;
55312;SDS011;46892;45.668;11.756;2023-03-13T01:35:49;24.03;;;17.40;;
55312;SDS011;46892;45.668;11.756;2023-03-13T01:38:15;20.63;;;15.30;;
55312;SDS011;46892;45.668;11.756;2023-03-13T01:41:01;21.87;;;14.77;;
55312;SDS011;46892;45.668;11.756;2023-03-13T01:43:28;21.87;;;13.90;;
55312;SDS011;46892;45.668;11.756;2023-03-13T01:48:49;21.03;;;14.73;;
55312;SDS011;46892;45.668;11.756;2023-03-13T01:51:36;18.70;;;14.20;;
55312;SDS011;46892;45.668;11.756;2023-03-13T01:54:04;18.70;;;13.33;;
55312;SDS011;46892;45.668;11.756;2023-03-13T01:56:42;15.47;;;10.93;;
55312;SDS011;46892;45.668;11.756;2023-03-13T01:59:17;15.83;;;11.83;;
55312;SDS011;46892;45.668;11.756;2023-03-13T02:01:46;18.53;;;11.90;;
55312;SDS011;46892;45.668;11.756;2023-03-13T02:04:15;15.53;;;11.17;;
55312;SDS011;46892;45.668;11.756;2023-03-13T02:06:44;17.23;;;12.27;;
55312;SDS011;46892;45.668;11.756;2023-03-13T02:09:16;16.33;;;11.98;;
55312;SDS011;46892;45.668;11.756;2023-03-13T02:11:47;16.23;;;10.45;;
55312;SDS011;46892;45.668;11.756;2023-03-13T02:14:49;14.83;;;11.70;;
55312;SDS011;46892;45.668;11.756;2023-03-13T02:17:16;16.57;;;12.27;;
55312;SDS011;46892;45.668;11.756;2023-03-13T02:19:43;16.60;;;10.47;;
55312;SDS011;46892;45.668;11.756;2023-03-13T02:27:46;14.87;;;10.50;;
55312;SDS011;46892;45.668;11.756;2023-03-13T02:30:12;13.57;;;9.87;;
55312;SDS011;46892;45.668;11.756;2023-03-13T02:32:39;16.13;;;9.43;;
55312;SDS011;46892;45.668;11.756;2023-03-13T02:35:09;14.93;;;9.47;;
55312;SDS011;46892;45.668;11.756;2023-03-13T02:37:37;14.13;;;9.53;;
55312;SDS011;46892;45.668;11.756;2023-03-13T02:40:07;14.03;;;8.83;;
55312;SDS011;46892;45.668;11.756;2023-03-13T02:42:37;11.93;;;8.88;;
55312;SDS011;46892;45.668;11.756;2023-03-13T02:45:04;13.67;;;8.83;;
55312;SDS011;46892;45.668;11.756;2023-03-13T02:47:31;10.67;;;7.83;;
55312;SDS011;46892;45.668;11.756;2023-03-13T02:49:56;12.50;;;8.60;;
55312;SDS011;46892;45.668;11.756;2023-03-13T02:52:23;12.17;;;8.33;;
55312;SDS011;46892;45.668;11.756;2023-03-13T02:59:49;10.07;;;7.40;;
55312;SDS011;46892;45.668;11.756;2023-03-13T03:02:15;10.73;;;8.00;;
55312;SDS011;46892;45.668;11.756;2023-03-13T03:04:41;11.17;;;7.80;;
55312;SDS011;46892;45.668;11.756;2023-03-13T03:07:06;11.53;;;7.97;;
55312;SDS011;46892;45.668;11.756;2023-03-13T03:09:32;10.33;;;7.37;;
55312;SDS011;46892;45.668;11.756;2023-03-13T03:11:57;11.97;;;8.37;;
55312;SDS011;46892;45.668;11.756;2023-03-13T03:14:23;11.57;;;7.37;;
55312;SDS011;46892;45.668;11.756;2023-03-13T03:16:49;11.53;;;8.20;;
55312;SDS011;46892;45.668;11.756;2023-03-13T03:19:14;12.67;;;8.37;;
55312;SDS011;46892;45.668;11.756;2023-03-13T03:21:40;9.67;;;7.17;;
55312;SDS011;46892;45.668;11.756;2023-03-13T03:24:06;11.43;;;8.17;;
55312;SDS011;46892;45.668;11.756;2023-03-13T03:26:32;11.37;;;8.07;;
55312;SDS011;46892;45.668;11.756;2023-03-13T03:28:58;10.20;;;7.67;;
55312;SDS011;46892;45.668;11.756;2023-03-13T03:31:23;10.70;;;8.13;;
55312;SDS011;46892;45.668;11.756;2023-03-13T03:33:49;9.67;;;7.20;;
55312;SDS011;46892;45.668;11.756;2023-03-13T03:36:16;10.13;;;7.47;;
55312;SDS011;46892;45.668;11.756;2023-03-13T03:38:44;13.57;;;8.33;;
55312;SDS011;46892;45.668;11.756;2023-03-13T03:41:10;10.77;;;7.83;;
55312;SDS011;46892;45.668;11.756;2023-03-13T03:43:38;12.27;;;8.60;;
55312;SDS011;46892;45.668;11.756;2023-03-13T03:46:03;11.43;;;8.50;;
55312;SDS011;46892;45.668;11.756;2023-03-13T03:48:30;12.53;;;8.13;;
55312;SDS011;46892;45.668;11.756;2023-03-13T03:50:55;10.87;;;8.40;;
55312;SDS011;46892;45.668;11.756;2023-03-13T03:53:21;12.13;;;7.90;;
55312;SDS011;46892;45.668;11.756;2023-03-13T03:55:47;11.10;;;7.57;;
55312;SDS011;46892;45.668;11.756;2023-03-13T03:58:13;10.33;;;7.47;;
55312;SDS011;46892;45.668;11.756;2023-03-13T04:00:41;10.67;;;7.30;;
55312;SDS011;46892;45.668;11.756;2023-03-13T04:03:11;13.77;;;9.30;;
55312;SDS011;46892;45.668;11.756;2023-03-13T04:05:37;10.27;;;8.20;;
55312;SDS011;46892;45.668;11.756;2023-03-13T04:08:03;10.57;;;7.57;;
55312;SDS011;46892;45.668;11.756;2023-03-13T04:10:29;13.00;;;7.90;;
55312;SDS011;46892;45.668;11.756;2023-03-13T04:12:55;11.77;;;8.23;;
55312;SDS011;46892;45.668;11.756;2023-03-13T04:15:21;11.43;;;7.97;;
55312;SDS011;46892;45.668;11.756;2023-03-13T04:17:46;10.03;;;7.37;;
55312;SDS011;46892;45.668;11.756;2023-03-13T04:20:12;10.17;;;7.43;;
55312;SDS011;46892;45.668;11.756;2023-03-13T04:22:38;11.63;;;7.30;;
55312;SDS011;46892;45.668;11.756;2023-03-13T04:25:05;9.80;;;7.70;;
55312;SDS011;46892;45.668;11.756;2023-03-13T04:27:31;10.43;;;8.27;;
55312;SDS011;46892;45.668;11.756;2023-03-13T04:29:58;10.77;;;7.73;;
55312;SDS011;46892;45.668;11.756;2023-03-13T04:32:23;10.53;;;7.77;;
55312;SDS011;46892;45.668;11.756;2023-03-13T04:34:49;11.87;;;8.43;;
55312;SDS011;46892;45.668;11.756;2023-03-13T04:37:15;12.20;;;8.03;;
55312;SDS011;46892;45.668;11.756;2023-03-13T04:39:40;10.37;;;7.33;;
55312;SDS011;46892;45.668;11.756;2023-03-13T04:42:06;10.13;;;7.53;;
55312;SDS011;46892;45.668;11.756;2023-03-13T04:44:34;9.30;;;7.40;;
55312;SDS011;46892;45.668;11.756;2023-03-13T04:47:00;9.83;;;7.87;;
55312;SDS011;46892;45.668;11.756;2023-03-13T04:49:25;10.60;;;8.17;;
55312;SDS011;46892;45.668;11.756;2023-03-13T04:51:51;11.97;;;8.23;;
55312;SDS011;46892;45.668;11.756;2023-03-13T04:54:17;11.23;;;8.43;;
55312;SDS011;46892;45.668;11.756;2023-03-13T04:56:42;13.80;;;8.93;;
55312;SDS011;46892;45.668;11.756;2023-03-13T04:59:09;13.47;;;8.83;;
55312;SDS011;46892;45.668;11.756;2023-03-13T05:01:36;11.00;;;8.20;;
55312;SDS011;46892;45.668;11.756;2023-03-13T05:04:02;10.77;;;7.73;;
55312;SDS011;46892;45.668;11.756;2023-03-13T05:06:28;12.50;;;8.23;;
55312;SDS011;46892;45.668;11.756;2023-03-13T05:08:53;13.23;;;7.80;;
55312;SDS011;46892;45.668;11.756;2023-03-13T05:11:19;12.63;;;8.73;;
55312;SDS011;46892;45.668;11.756;2023-03-13T05:13:45;10.33;;;8.23;;
55312;SDS011;46892;45.668;11.756;2023-03-13T05:16:11;22.63;;;8.90;;
55312;SDS011;46892;45.668;11.756;2023-03-13T05:18:36;12.80;;;8.70;;
55312;SDS011;46892;45.668;11.756;2023-03-13T05:21:03;12.63;;;8.37;;
55312;SDS011;46892;45.668;11.756;2023-03-13T05:23:29;11.47;;;8.03;;
55312;SDS011;46892;45.668;11.756;2023-03-13T05:25:54;10.70;;;7.67;;
55312;SDS011;46892;45.668;11.756;2023-03-13T05:28:20;11.20;;;8.20;;
55312;SDS011;46892;45.668;11.756;2023-03-13T05:30:46;13.33;;;8.30;;
55312;SDS011;46892;45.668;11.756;2023-03-13T05:33:11;9.73;;;7.43;;
55312;SDS011;46892;45.668;11.756;2023-03-13T05:35:37;9.53;;;7.47;;
55312;SDS011;46892;45.668;11.756;2023-03-13T05:38:03;12.53;;;8.13;;
55312;SDS011;46892;45.668;11.756;2023-03-13T05:40:28;11.77;;;8.17;;
55312;SDS011;46892;45.668;11.756;2023-03-13T05:42:54;11.77;;;8.53;;
55312;SDS011;46892;45.668;11.756;2023-03-13T05:45:20;12.47;;;8.30;;
55312;SDS011;46892;45.668;11.756;2023-03-13T05:47:45;16.57;;;8.37;;
55312;SDS011;46892;45.668;11.756;2023-03-13T05:50:11;17.90;;;10.27;;
55312;SDS011;46892;45.668;11.756;2023-03-13T05:52:37;11.80;;;8.80;;
55312;SDS011;46892;45.668;11.756;2023-03-13T05:55:02;12.10;;;9.07;;
55312;SDS011;46892;45.668;11.756;2023-03-13T05:57:28;13.43;;;9.30;;
55312;SDS011;46892;45.668;11.756;2023-03-13T05:59:54;12.90;;;8.87;;
55312;SDS011;46892;45.668;11.756;2023-03-13T06:02:19;18.97;;;9.50;;
55312;SDS011;46892;45.668;11.756;2023-03-13T06:04:45;15.03;;;9.40;;
55312;SDS011;46892;45.668;11.756;2023-03-13T06:07:11;13.13;;;8.73;;
55312;SDS011;46892;45.668;11.756;2023-03-13T06:09:37;13.23;;;9.77;;
55312;SDS011;46892;45.668;11.756;2023-03-13T06:12:05;15.00;;;9.07;;
55312;SDS011;46892;45.668;11.756;2023-03-13T06:14:34;12.20;;;9.37;;
55312;SDS011;46892;45.668;11.756;2023-03-13T06:17:00;13.30;;;8.67;;
55312;SDS011;46892;45.668;11.756;2023-03-13T06:19:26;15.77;;;10.50;;
55312;SDS011;46892;45.668;11.756;2023-03-13T06:21:51;15.53;;;10.90;;
55312;SDS011;46892;45.668;11.756;2023-03-13T06:24:17;14.30;;;10.50;;
55312;SDS011;46892;45.668;11.756;2023-03-13T06:26:43;17.77;;;10.27;;
55312;SDS011;46892;45.668;11.756;2023-03-13T06:29:11;14.07;;;10.53;;
55312;SDS011;46892;45.668;11.756;2023-03-13T06:31:37;14.83;;;10.50;;
55312;SDS011;46892;45.668;11.756;2023-03-13T06:34:02;13.77;;;10.33;;
55312;SDS011;46892;45.668;11.756;2023-03-13T06:36:28;14.27;;;11.27;;
55312;SDS011;46892;45.668;11.756;2023-03-13T06:38:53;17.87;;;10.67;;
55312;SDS011;46892;45.668;11.756;2023-03-13T06:41:19;16.17;;;10.33;;
55312;SDS011;46892;45.668;11.756;2023-03-13T06:43:45;12.87;;;9.40;;
55312;SDS011;46892;45.668;11.756;2023-03-13T06:46:14;13.77;;;9.87;;
55312;SDS011;46892;45.668;11.756;2023-03-13T06:48:45;16.73;;;10.57;;
55312;SDS011;46892;45.668;11.756;2023-03-13T06:51:11;15.57;;;10.30;;
55312;SDS011;46892;45.668;11.756;2023-03-13T06:53:38;14.93;;;10.50;;
55312;SDS011;46892;45.668;11.756;2023-03-13T06:56:21;15.43;;;10.73;;
55312;SDS011;46892;45.668;11.756;2023-03-13T06:58:47;17.37;;;11.83;;
55312;SDS011;46892;45.668;11.756;2023-03-13T07:01:14;15.50;;;11.07;;
55312;SDS011;46892;45.668;11.756;2023-03-13T07:03:41;21.73;;;12.73;;
55312;SDS011;46892;45.668;11.756;2023-03-13T07:06:07;21.20;;;13.77;;
55312;SDS011;46892;45.668;11.756;2023-03-13T07:08:34;18.23;;;13.50;;
55312;SDS011;46892;45.668;11.756;2023-03-13T07:11:02;19.03;;;12.90;;
55312;SDS011;46892;45.668;11.756;2023-03-13T07:13:30;21.37;;;12.67;;
55312;SDS011;46892;45.668;11.756;2023-03-13T07:15:59;16.87;;;12.03;;
55312;SDS011;46892;45.668;11.756;2023-03-13T07:18:30;16.83;;;11.47;;
55312;SDS011;46892;45.668;11.756;2023-03-13T07:20:57;15.53;;;11.17;;
55312;SDS011;46892;45.668;11.756;2023-03-13T07:23:24;17.20;;;12.00;;
55312;SDS011;46892;45.668;11.756;2023-03-13T07:25:54;16.87;;;11.97;;
55312;SDS011;46892;45.668;11.756;2023-03-13T07:28:22;16.83;;;11.33;;
55312;SDS011;46892;45.668;11.756;2023-03-13T07:30:48;16.60;;;12.33;;
55312;SDS011;46892;45.668;11.756;2023-03-13T07:33:15;18.37;;;12.73;;
55312;SDS011;46892;45.668;11.756;2023-03-13T07:35:46;17.13;;;12.27;;
55312;SDS011;46892;45.668;11.756;2023-03-13T07:38:15;18.03;;;11.67;;
55312;SDS011;46892;45.668;11.756;2023-03-13T07:40:48;15.90;;;11.23;;
55312;SDS011;46892;45.668;11.756;2023-03-13T07:43:14;13.63;;;10.70;;
55312;SDS011;46892;45.668;11.756;2023-03-13T07:45:50;17.30;;;11.50;;
55312;SDS011;46892;45.668;11.756;2023-03-13T07:48:17;13.87;;;9.43;;
55312;SDS011;46892;45.668;11.756;2023-03-13T07:50:43;12.77;;;9.10;;
55312;SDS011;46892;45.668;11.756;2023-03-13T07:53:09;14.47;;;9.13;;
55312;SDS011;46892;45.668;11.756;2023-03-13T07:55:35;10.77;;;7.80;;
55312;SDS011;46892;45.668;11.756;2023-03-13T07:58:00;10.80;;;7.83;;
55312;SDS011;46892;45.668;11.756;2023-03-13T08:00:26;10.87;;;7.27;;
55312;SDS011;46892;45.668;11.756;2023-03-13T08:02:52;11.77;;;7.27;;
55312;SDS011;46892;45.668;11.756;2023-03-13T08:05:18;11.27;;;8.13;;
55312;SDS011;46892;45.668;11.756;2023-03-13T08:07:44;14.37;;;8.20;;
55312;SDS011;46892;45.668;11.756;2023-03-13T08:10:10;12.17;;;7.80;;
55312;SDS011;46892;45.668;11.756;2023-03-13T08:12:36;12.60;;;7.73;;
55312;SDS011;46892;45.668;11.756;2023-03-13T08:15:01;10.40;;;7.07;;
55312;SDS011;46892;45.668;11.756;2023-03-13T09:11:20;10.27;;;6.70;;
55312;SDS011;46892;45.668;11.756;2023-03-13T09:13:47;8.73;;;6.20;;
55312;SDS011;46892;45.668;11.756;2023-03-13T09:16:15;12.43;;;6.73;;
55312;SDS011;46892;45.668;11.756;2023-03-13T09:18:42;11.63;;;6.70;;
55312;SDS011;46892;45.668;11.756;2023-03-13T09:21:10;9.97;;;6.73;;
55312;SDS011;46892;45.668;11.756;2023-03-13T09:23:37;10.03;;;6.33;;
55312;SDS011;46892;45.668;11.756;2023-03-13T09:26:04;10.60;;;6.80;;
55312;SDS011;46892;45.668;11.756;2023-03-13T09:28:30;10.27;;;6.63;;
55312;SDS011;46892;45.668;11.756;2023-03-13T09:31:04;8.40;;;5.60;;
55312;SDS011;46892;45.668;11.756;2023-03-13T09:33:35;9.57;;;5.90;;
55312;SDS011;46892;45.668;11.756;2023-03-13T09:36:01;10.97;;;5.90;;
55312;SDS011;46892;45.668;11.756;2023-03-13T09:38:27;9.07;;;5.87;;
55312;SDS011;46892;45.668;11.756;2023-03-13T09:40:52;8.27;;;5.97;;
55312;SDS011;46892;45.668;11.756;2023-03-13T09:46:12;8.80;;;5.60;;
55312;SDS011;46892;45.668;11.756;2023-03-13T09:48:53;10.50;;;6.07;;
55312;SDS011;46892;45.668;11.756;2023-03-13T09:51:25;8.83;;;5.90;;
55312;SDS011;46892;45.668;11.756;2023-03-13T09:54:23;10.67;;;6.00;;
55312;SDS011;46892;45.668;11.756;2023-03-13T10:02:43;8.23;;;5.70;;
55312;SDS011;46892;45.668;11.756;2023-03-13T10:05:25;9.25;;;5.07;;
55312;SDS011;46892;45.668;11.756;2023-03-13T10:07:55;9.77;;;5.93;;
55312;SDS011;46892;45.668;11.756;2023-03-13T10:16:09;7.50;;;5.53;;
55312;SDS011;46892;45.668;11.756;2023-03-13T10:18:39;9.27;;;5.47;;
55312;SDS011;46892;45.668;11.756;2023-03-13T10:21:15;10.63;;;6.30;;
55312;SDS011;46892;45.668;11.756;2023-03-13T10:23:45;8.93;;;6.13;;
55312;SDS011;46892;45.668;11.756;2023-03-13T10:26:36;8.87;;;6.53;;
55312;SDS011;46892;45.668;11.756;2023-03-13T10:31:58;10.63;;;6.07;;
55312;SDS011;46892;45.668;11.756;2023-03-13T10:34:43;13.07;;;6.07;;
55312;SDS011;46892;45.668;11.756;2023-03-13T10:37:27;9.60;;;5.90;;
55312;SDS011;46892;45.668;11.756;2023-03-13T10:42:50;9.77;;;5.83;;
55312;SDS011;46892;45.668;11.756;2023-03-13T10:45:18;11.60;;;6.20;;
55312;SDS011;46892;45.668;11.756;2023-03-13T10:47:52;8.77;;;6.03;;
55312;SDS011;46892;45.668;11.756;2023-03-13T10:50:24;9.90;;;6.13;;
55312;SDS011;46892;45.668;11.756;2023-03-13T10:52:52;9.23;;;5.90;;
55312;SDS011;46892;45.668;11.756;2023-03-13T10:55:22;9.53;;;6.47;;
55312;SDS011;46892;45.668;11.756;2023-03-13T11:00:28;8.93;;;5.97;;
55312;SDS011;46892;45.668;11.756;2023-03-13T11:03:45;8.87;;;5.90;;
55312;SDS011;46892;45.668;11.756;2023-03-13T11:05:58;9.83;;;6.20;;
55312;SDS011;46892;45.668;11.756;2023-03-13T11:08:26;9.10;;;5.60;;
55312;SDS011;46892;45.668;11.756;2023-03-13T11:10:59;9.07;;;5.40;;
55312;SDS011;46892;45.668;11.756;2023-03-13T11:13:32;6.93;;;4.73;;
55312;SDS011;46892;45.668;11.756;2023-03-13T11:16:21;7.07;;;4.30;;
55312;SDS011;46892;45.668;11.756;2023-03-13T11:19:06;8.67;;;4.80;;
55312;SDS011;46892;45.668;11.756;2023-03-13T11:24:45;6.87;;;4.77;;
55312;SDS011;46892;45.668;11.756;2023-03-13T11:35:14;8.37;;;4.87;;
55312;SDS011;46892;45.668;11.756;2023-03-13T11:37:45;6.67;;;4.27;;
55312;SDS011;46892;45.668;11.756;2023-03-13T11:50:51;7.93;;;4.73;;
55312;SDS011;46892;45.668;11.756;2023-03-13T11:56:33;8.27;;;5.43;;
55312;SDS011;46892;45.668;11.756;2023-03-13T12:01:50;8.33;;;5.47;;
55312;SDS011;46892;45.668;11.756;2023-03-13T12:04:32;7.17;;;4.90;;
55312;SDS011;46892;45.668;11.756;2023-03-13T12:07:09;8.23;;;4.80;;
55312;SDS011;46892;45.668;11.756;2023-03-13T12:12:32;8.47;;;4.47;;
55312;SDS011;46892;45.668;11.756;2023-03-13T12:15:04;8.47;;;5.03;;
55312;SDS011;46892;45.668;11.756;2023-03-13T12:17:34;7.53;;;4.70;;
55312;SDS011;46892;45.668;11.756;2023-03-13T12:20:18;8.83;;;3.93;;
55312;SDS011;46892;45.668;11.756;2023-03-13T12:25:56;7.57;;;4.70;;
55312;SDS011;46892;45.668;11.756;2023-03-13T12:34:12;7.28;;;4.25;;
55312;SDS011;46892;45.668;11.756;2023-03-13T12:36:53;5.70;;;3.67;;
55312;SDS011;46892;45.668;11.756;2023-03-13T12:39:34;7.20;;;4.43;;
55312;SDS011;46892;45.668;11.756;2023-03-13T12:44:46;8.57;;;4.00;;
55312;SDS011;46892;45.668;11.756;2023-03-13T12:50:40;6.03;;;3.60;;
55312;SDS011;46892;45.668;11.756;2023-03-13T13:01:06;6.00;;;3.33;;
55312;SDS011;46892;45.668;11.756;2023-03-13T13:03:38;7.90;;;3.53;;
55312;SDS011;46892;45.668;11.756;2023-03-13T13:06:15;6.73;;;3.53;;
55312;SDS011;46892;45.668;11.756;2023-03-13T13:13:58;5.30;;;3.13;;
55312;SDS011;46892;45.668;11.756;2023-03-13T13:16:43;6.20;;;3.20;;
55312;SDS011;46892;45.668;11.756;2023-03-13T13:24:51;8.40;;;3.87;;
55312;SDS011;46892;45.668;11.756;2023-03-13T13:32:54;5.93;;;3.10;;
55312;SDS011;46892;45.668;11.756;2023-03-13T13:35:22;5.87;;;3.30;;
55312;SDS011;46892;45.668;11.756;2023-03-13T13:37:50;9.43;;;3.72;;
55312;SDS011;46892;45.668;11.756;2023-03-13T13:40:28;6.77;;;3.40;;
55312;SDS011;46892;45.668;11.756;2023-03-13T13:43:02;6.87;;;3.90;;
55312;SDS011;46892;45.668;11.756;2023-03-13T13:56:27;7.03;;;3.10;;
55312;SDS011;46892;45.668;11.756;2023-03-13T13:58:57;6.43;;;3.03;;
55312;SDS011;46892;45.668;11.756;2023-03-13T14:01:27;5.27;;;2.63;;
55312;SDS011;46892;45.668;11.756;2023-03-13T14:03:53;6.80;;;2.87;;
55312;SDS011;46892;45.668;11.756;2023-03-13T14:06:49;5.53;;;2.60;;
55312;SDS011;46892;45.668;11.756;2023-03-13T14:11:59;5.27;;;3.10;;
55312;SDS011;46892;45.668;11.756;2023-03-13T14:14:25;6.47;;;3.10;;
55312;SDS011;46892;45.668;11.756;2023-03-13T14:16:51;7.73;;;3.10;;
55312;SDS011;46892;45.668;11.756;2023-03-13T14:22:07;6.90;;;2.83;;
55312;SDS011;46892;45.668;11.756;2023-03-13T14:24:34;6.77;;;3.03;;
55312;SDS011;46892;45.668;11.756;2023-03-13T14:27:01;6.90;;;3.33;;
55312;SDS011;46892;45.668;11.756;2023-03-13T14:29:39;5.47;;;3.50;;
55312;SDS011;46892;45.668;11.756;2023-03-13T14:32:04;4.83;;;2.77;;
55312;SDS011;46892;45.668;11.756;2023-03-13T14:34:31;7.47;;;3.10;;
55312;SDS011;46892;45.668;11.756;2023-03-13T14:36:57;5.83;;;3.10;;
55312;SDS011;46892;45.668;11.756;2023-03-13T14:39:37;5.87;;;3.40;;
55312;SDS011;46892;45.668;11.756;2023-03-13T14:44:34;7.37;;;2.93;;
55312;SDS011;46892;45.668;11.756;2023-03-13T14:47:04;4.70;;;3.13;;
55312;SDS011;46892;45.668;11.756;2023-03-13T14:49:44;7.20;;;3.77;;
55312;SDS011;46892;45.668;11.756;2023-03-13T14:55:00;7.00;;;3.90;;
55312;SDS011;46892;45.668;11.756;2023-03-13T14:57:28;7.83;;;3.40;;
55312;SDS011;46892;45.668;11.756;2023-03-13T14:59:55;7.43;;;3.30;;
55312;SDS011;46892;45.668;11.756;2023-03-13T15:05:43;8.83;;;3.97;;
55312;SDS011;46892;45.668;11.756;2023-03-13T15:08:14;7.53;;;3.70;;
55312;SDS011;46892;45.668;11.756;2023-03-13T15:10:44;7.23;;;3.20;;
55312;SDS011;46892;45.668;11.756;2023-03-13T15:15:57;6.17;;;3.40;;
55312;SDS011;46892;45.668;11.756;2023-03-13T15:18:28;6.47;;;3.33;;
55312;SDS011;46892;45.668;11.756;2023-03-13T15:20:57;6.07;;;3.53;;
55312;SDS011;46892;45.668;11.756;2023-03-13T15:23:41;8.33;;;3.93;;
55312;SDS011;46892;45.668;11.756;2023-03-13T15:26:28;8.77;;;3.40;;
55312;SDS011;46892;45.668;11.756;2023-03-13T15:28:54;5.83;;;3.83;;
55312;SDS011;46892;45.668;11.756;2023-03-13T15:31:22;8.77;;;4.43;;
55312;SDS011;46892;45.668;11.756;2023-03-13T15:33:53;7.27;;;3.80;;
55312;SDS011;46892;45.668;11.756;2023-03-13T15:36:21;7.78;;;3.97;;
55312;SDS011;46892;45.668;11.756;2023-03-13T15:38:47;10.23;;;4.10;;
55312;SDS011;46892;45.668;11.756;2023-03-13T15:41:15;6.37;;;3.80;;
55312;SDS011;46892;45.668;11.756;2023-03-13T15:43:41;8.27;;;4.53;;
55312;SDS011;46892;45.668;11.756;2023-03-13T15:46:09;8.27;;;3.60;;
55312;SDS011;46892;45.668;11.756;2023-03-13T15:48:38;8.53;;;4.20;;
55312;SDS011;46892;45.668;11.756;2023-03-13T15:51:05;8.07;;;4.27;;
55312;SDS011;46892;45.668;11.756;2023-03-13T15:53:34;8.57;;;4.60;;
55312;SDS011;46892;45.668;11.756;2023-03-13T15:56:01;7.30;;;4.23;;
55312;SDS011;46892;45.668;11.756;2023-03-13T15:58:35;7.37;;;4.10;;
55312;SDS011;46892;45.668;11.756;2023-03-13T16:01:01;6.67;;;4.07;;
55312;SDS011;46892;45.668;11.756;2023-03-13T16:03:27;6.23;;;4.30;;
55312;SDS011;46892;45.668;11.756;2023-03-13T16:05:53;6.50;;;3.97;;
55312;SDS011;46892;45.668;11.756;2023-03-13T16:08:21;7.77;;;3.97;;
55312;SDS011;46892;45.668;11.756;2023-03-13T16:10:48;7.33;;;4.40;;
55312;SDS011;46892;45.668;11.756;2023-03-13T16:13:14;8.47;;;4.13;;
55312;SDS011;46892;45.668;11.756;2023-03-13T16:15:40;8.03;;;4.37;;
55312;SDS011;46892;45.668;11.756;2023-03-13T16:18:08;8.00;;;4.37;;
55312;SDS011;46892;45.668;11.756;2023-03-13T16:20:45;7.97;;;4.70;;
55312;SDS011;46892;45.668;11.756;2023-03-13T16:23:11;9.30;;;4.60;;
55312;SDS011;46892;45.668;11.756;2023-03-13T16:25:37;10.60;;;4.60;;
55312;SDS011;46892;45.668;11.756;2023-03-13T16:28:03;7.33;;;4.07;;
55312;SDS011;46892;45.668;11.756;2023-03-13T16:30:31;6.83;;;3.70;;
55312;SDS011;46892;45.668;11.756;2023-03-13T16:32:58;9.47;;;4.23;;
55312;SDS011;46892;45.668;11.756;2023-03-13T16:35:24;9.20;;;4.80;;
55312;SDS011;46892;45.668;11.756;2023-03-13T16:37:52;9.13;;;4.67;;
55312;SDS011;46892;45.668;11.756;2023-03-13T16:40:29;11.03;;;6.03;;
55312;SDS011;46892;45.668;11.756;2023-03-13T16:42:56;9.27;;;5.17;;
55312;SDS011;46892;45.668;11.756;2023-03-13T16:45:22;13.50;;;6.13;;
55312;SDS011;46892;45.668;11.756;2023-03-13T16:47:48;13.40;;;5.70;;
55312;SDS011;46892;45.668;11.756;2023-03-13T16:52:59;11.97;;;6.20;;
55312;SDS011;46892;45.668;11.756;2023-03-13T16:55:25;10.40;;;5.77;;
55312;SDS011;46892;45.668;11.756;2023-03-13T16:57:59;14.13;;;4.93;;
55312;SDS011;46892;45.668;11.756;2023-03-13T17:00:26;12.23;;;5.17;;
55312;SDS011;46892;45.668;11.756;2023-03-13T17:02:53;11.67;;;5.47;;
55312;SDS011;46892;45.668;11.756;2023-03-13T17:05:20;10.63;;;5.23;;
55312;SDS011;46892;45.668;11.756;2023-03-13T17:07:47;9.37;;;4.63;;
55312;SDS011;46892;45.668;11.756;2023-03-13T17:10:18;7.63;;;4.40;;
55312;SDS011;46892;45.668;11.756;2023-03-13T17:12:49;8.27;;;4.40;;
55312;SDS011;46892;45.668;11.756;2023-03-13T17:15:15;9.40;;;3.80;;
55312;SDS011;46892;45.668;11.756;2023-03-13T17:17:41;8.67;;;4.63;;
55312;SDS011;46892;45.668;11.756;2023-03-13T17:20:10;7.87;;;3.87;;
55312;SDS011;46892;45.668;11.756;2023-03-13T17:22:37;7.35;;;3.60;;
55312;SDS011;46892;45.668;11.756;2023-03-13T17:25:03;6.40;;;3.70;;
55312;SDS011;46892;45.668;11.756;2023-03-13T17:27:29;8.27;;;4.33;;
55312;SDS011;46892;45.668;11.756;2023-03-13T17:29:56;7.47;;;3.93;;
55312;SDS011;46892;45.668;11.756;2023-03-13T17:32:22;8.67;;;3.73;;
55312;SDS011;46892;45.668;11.756;2023-03-13T17:34:49;7.40;;;3.97;;
55312;SDS011;46892;45.668;11.756;2023-03-13T17:37:16;7.07;;;4.00;;
55312;SDS011;46892;45.668;11.756;2023-03-13T17:42:12;10.90;;;5.50;;
55312;SDS011;46892;45.668;11.756;2023-03-13T17:44:38;14.37;;;7.63;;
55312;SDS011;46892;45.668;11.756;2023-03-13T17:47:12;20.90;;;11.70;;